Time;durP1;ratioP1;P1;durP2;ratioP2;P2;SDS_P1;SDS_P2;PMS_P1;PMS_P2;Temp;Humidity;BMP_temperature;BMP_pressure;BME280_temperature;BME280_humidity;BME280_pressure;Samples;Min_cycle;Max_cycle;Signal;HPM_P1;HPM_P2
2023/03/13 00:11:47;;;;;;;21.30;8.60;;;;;;;4.84;62.93;99658.77;681956;1264;138619;-84
2023/03/13 00:26:50;;;;;;;19.60;9.40;;;;;;;4.81;63.14;99625.52;682047;1262;138842;-82
2023/03/13 00:41:53;;;;;;;24.60;8.70;;;;;;;4.66;64.44;99599.75;681850;1265;139282;-82
2023/03/13 00:56:57;;;;;;;20.50;8.70;;;;;;;4.59;64.63;99583.66;681964;1260;138790;-82
2023/03/13 01:12:00;;;;;;;20.20;8.90;;;;;;;4.56;65.33;99566.25;681803;1264;139262;-82
2023/03/13 01:27:06;;;;;;;19.00;8.00;;;;;;;4.59;64.97;99566.30;681844;1260;138400;-82
2023/03/13 01:42:09;;;;;;;18.10;8.00;;;;;;;4.72;65.19;99543.35;682014;1262;138753;-82
2023/03/13 01:57:48;;;;;;;15.40;7.80;;;;;;;4.74;65.12;99514.44;682211;1263;139411;-82
2023/03/13 02:12:52;;;;;;;14.60;6.70;;;;;;;4.77;66.00;99518.55;682044;1263;138337;-82
2023/03/13 02:28:00;;;;;;;17.20;7.50;;;;;;;4.93;65.77;99492.05;681926;1264;138186;-82
2023/03/13 02:43:12;;;;;;;18.70;9.20;;;;;;;4.98;66.95;99477.64;681913;1265;139195;-84
2023/03/13 02:58:16;;;;;;;21.70;9.40;;;;;;;4.94;67.77;99471.76;681842;1265;138637;-82
2023/03/13 03:13:20;;;;;;;24.70;10.50;;;;;;;4.90;68.98;99478.81;681843;1280;138732;-83
2023/03/13 03:28:23;;;;;;;18.50;9.00;;;;;;;4.97;70.44;99459.02;681910;1264;138643;-83
2023/03/13 03:43:27;;;;;;;21.30;10.30;;;;;;;5.06;71.77;99436.27;682153;1263;150577;-83
2023/03/13 03:58:31;;;;;;;18.90;8.50;;;;;;;5.10;72.61;99435.44;681904;1264;139571;-82
2023/03/13 04:13:49;;;;;;;22.50;10.00;;;;;;;5.06;75.04;99427.98;682018;1261;138941;-83
2023/03/13 04:28:52;;;;;;;22.10;9.20;;;;;;;5.14;76.25;99412.80;682052;1264;139489;-82
2023/03/13 04:44:08;;;;;;;23.90;10.30;;;;;;;5.16;77.28;99405.39;682093;1263;139230;-82
2023/03/13 04:59:37;;;;;;;23.00;10.10;;;;;;;5.14;78.99;99406.54;682010;1263;138881;-82
2023/03/13 05:14:58;;;;;;;30.60;11.90;;;;;;;5.09;81.57;99393.77;682230;1264;138912;-83
2023/03/13 05:30:08;;;;;;;33.20;14.50;;;;;;;5.01;83.23;99373.09;681892;1265;139391;-82
2023/03/13 05:45:31;;;;;;;73.40;28.20;;;;;;;5.07;84.18;99358.20;681883;1264;138460;-82
2023/03/13 06:00:55;;;;;;;50.80;19.80;;;;;;;5.19;85.89;99343.94;682002;1264;138739;-83
2023/03/13 06:16:16;;;;;;;43.50;20.10;;;;;;;5.14;88.23;99329.75;682102;1265;139539;-82
2023/03/13 06:31:23;;;;;;;64.60;31.40;;;;;;;5.19;89.36;99319.67;682010;1265;138468;-84
2023/03/13 06:46:26;;;;;;;57.10;26.00;;;;;;;5.33;92.02;99312.27;682118;1260;139461;-82
2023/03/13 07:01:29;;;;;;;76.20;37.70;;;;;;;5.47;92.77;99291.90;682186;1265;138503;-83
2023/03/13 07:16:33;;;;;;;50.70;22.70;;;;;;;5.60;92.19;99276.45;681918;1262;139037;-83
2023/03/13 07:31:38;;;;;;;55.30;25.60;;;;;;;5.67;94.35;99253.48;682049;1265;138755;-82
2023/03/13 07:46:41;;;;;;;156.60;71.10;;;;;;;5.89;95.49;99248.70;682123;1264;139098;-83
2023/03/13 08:01:44;;;;;;;52.50;26.80;;;;;;;6.15;95.25;99244.23;682159;1265;139281;-83
2023/03/13 08:16:47;;;;;;;69.80;31.50;;;;;;;6.44;95.60;99221.08;681908;1265;139726;-83
2023/03/13 08:31:51;;;;;;;65.60;29.60;;;;;;;6.75;96.24;99193.31;681967;1262;138519;-85
2023/03/13 08:46:55;;;;;;;73.00;33.20;;;;;;;7.16;95.76;99180.25;681961;1265;138379;-85
2023/03/13 09:01:59;;;;;;;103.40;40.50;;;;;;;7.54;95.89;99159.27;682158;1264;138396;-84
2023/03/13 09:17:03;;;;;;;76.90;35.30;;;;;;;7.96;95.66;99139.42;682008;1265;139342;-83
2023/03/13 09:32:06;;;;;;;62.70;31.50;;;;;;;8.42;94.87;99119.01;682062;1265;139609;-84
2023/03/13 09:47:30;;;;;;;58.40;30.60;;;;;;;8.83;94.31;99090.54;681763;1267;138856;-83
2023/03/13 10:02:35;;;;;;;46.90;25.60;;;;;;;9.42;93.84;99072.01;682341;1266;138641;-83
2023/03/13 10:17:39;;;;;;;53.80;28.00;;;;;;;9.86;93.97;99052.32;681929;1261;139168;-83
2023/03/13 10:32:42;;;;;;;56.50;29.60;;;;;;;10.23;95.13;99026.59;682214;1265;139003;-84
2023/03/13 10:48:13;;;;;;;46.20;23.00;;;;;;;10.61;96.87;98986.60;682032;1263;138572;-84
2023/03/13 11:03:22;;;;;;;35.30;18.10;;;;;;;10.97;96.53;98958.52;681783;1267;137599;-84
2023/03/13 11:18:37;;;;;;;78.80;32.10;;;;;;;11.23;96.62;98944.41;682292;1264;138625;-85
2023/03/13 11:34:03;;;;;;;49.60;24.90;;;;;;;11.22;96.75;98921.23;682301;1265;139908;-87
2023/03/13 11:49:25;;;;;;;47.20;21.20;;;;;;;11.14;98.11;98885.83;682295;1262;138889;-84
2023/03/13 12:04:37;;;;;;;29.40;15.30;;;;;;;11.08;98.72;98855.11;681856;1265;138536;-87
2023/03/13 12:20:08;;;;;;;31.60;14.90;;;;;;;11.04;99.81;98822.27;682176;1270;138542;-85
2023/03/13 12:35:22;;;;;;;46.40;25.20;;;;;;;11.05;99.87;98787.36;682278;1263;139659;-85
2023/03/13 12:50:44;;;;;;;25.40;15.00;;;;;;;11.05;100.00;98757.48;682243;1274;138665;-84
2023/03/13 13:06:17;;;;;;;30.80;15.50;;;;;;;11.11;100.00;98721.84;682177;1260;139588;-84
2023/03/13 13:21:25;;;;;;;28.70;13.40;;;;;;;11.19;100.00;98702.90;682149;1265;139393;-82
2023/03/13 13:36:29;;;;;;;34.40;16.40;;;;;;;11.38;100.00;98673.57;682250;1261;138896;-83
2023/03/13 13:52:05;;;;;;;31.90;14.70;;;;;;;11.35;100.00;98654.66;682244;1260;138886;-87
2023/03/13 14:07:17;;;;;;;31.80;14.10;;;;;;;11.45;100.00;98645.05;682411;1264;138939;-84
2023/03/13 14:22:21;;;;;;;30.70;14.50;;;;;;;11.51;100.00;98620.17;682139;1264;138931;-83
2023/03/13 14:37:42;;;;;;;31.40;12.90;;;;;;;11.53;100.00;98590.59;682129;1266;138955;-81
2023/03/13 14:53:03;;;;;;;31.70;12.80;;;;;;;11.68;100.00;98587.88;681945;1264;139118;-82
2023/03/13 15:08:21;;;;;;;27.90;13.40;;;;;;;11.77;100.00;98579.92;682264;1264;138823;-82
2023/03/13 15:23:25;;;;;;;24.70;10.00;;;;;;;11.79;100.00;98570.37;681902;1265;138904;-83
2023/03/13 15:38:28;;;;;;;22.80;10.20;;;;;;;12.00;100.00;98557.98;682056;1264;165983;-81
2023/03/13 15:53:36;;;;;;;21.30;11.60;;;;;;;12.10;100.00;98548.73;682025;1266;139608;-83
2023/03/13 16:08:40;;;;;;;18.90;12.50;;;;;;;12.13;100.00;98536.50;682167;1264;139401;-83
2023/03/13 16:23:43;;;;;;;24.70;12.60;;;;;;;12.19;100.00;98549.63;682062;1265;138908;-85
2023/03/13 16:38:49;;;;;;;17.10;10.50;;;;;;;12.26;100.00;98556.61;682205;1265;138803;-83
2023/03/13 16:53:55;;;;;;;23.10;13.80;;;;;;;12.31;100.00;98582.30;682028;1265;138831;-81
2023/03/13 17:09:00;;;;;;;23.20;13.60;;;;;;;12.32;100.00;98587.13;682257;1260;138662;-81
2023/03/13 17:24:06;;;;;;;23.80;12.40;;;;;;;12.47;100.00;98584.91;682081;1264;139215;-80
2023/03/13 17:39:13;;;;;;;47.10;26.10;;;;;;;12.41;100.00;98594.05;682362;1260;138812;-81
2023/03/13 17:54:17;;;;;;;40.90;19.00;;;;;;;12.51;100.00;98589.64;682157;1265;138921;-82
2023/03/13 18:09:21;;;;;;;39.00;20.60;;;;;;;12.50;100.00;98587.85;682256;1261;139013;-82
2023/03/13 18:24:24;;;;;;;63.40;20.70;;;;;;;12.55;100.00;98584.17;682085;1262;140182;-84
2023/03/13 18:39:31;;;;;;;22.30;10.90;;;;;;;12.60;100.00;98577.77;682179;1260;139002;-84
2023/03/13 18:54:34;;;;;;;33.40;16.30;;;;;;;12.65;100.00;98580.48;682127;1265;139101;-81
2023/03/13 19:09:37;;;;;;;25.50;17.50;;;;;;;12.61;100.00;98562.20;682251;1263;139938;-83
2023/03/13 19:24:46;;;;;;;20.70;11.10;;;;;;;12.60;100.00;98540.42;682341;1262;138876;-83
2023/03/13 19:39:50;;;;;;;18.80;10.20;;;;;;;12.60;100.00;98534.44;682001;1261;140903;-83
2023/03/13 19:54:54;;;;;;;20.20;11.50;;;;;;;12.58;100.00;98537.30;682343;1263;139051;-83
2023/03/13 20:09:58;;;;;;;16.50;9.90;;;;;;;12.61;100.00;98543.23;681950;1265;139223;-82
2023/03/13 20:25:03;;;;;;;24.20;13.70;;;;;;;12.52;100.00;98535.92;682096;1262;139401;-82
2023/03/13 20:40:09;;;;;;;31.60;15.50;;;;;;;12.53;100.00;98513.14;681626;1261;139108;-82
2023/03/13 20:55:12;;;;;;;26.40;12.60;;;;;;;12.46;100.00;98517.50;682170;1262;139060;-84
2023/03/13 21:10:17;;;;;;;19.20;9.70;;;;;;;12.69;100.00;98486.36;682003;1262;139112;-81
2023/03/13 21:25:20;;;;;;;14.80;7.90;;;;;;;12.82;99.93;98468.25;682221;1265;138907;-81
2023/03/13 21:40:23;;;;;;;18.00;9.20;;;;;;;13.03;98.88;98447.70;682056;1262;138629;-82
2023/03/13 21:55:27;;;;;;;16.70;10.00;;;;;;;13.16;97.42;98450.50;682112;1264;138848;-81
2023/03/13 22:10:30;;;;;;;13.90;7.60;;;;;;;13.20;96.04;98445.90;681777;1265;139100;-81
2023/03/13 22:25:37;;;;;;;13.70;7.80;;;;;;;13.30;95.33;98419.29;682029;1264;138985;-83
2023/03/13 22:40:41;;;;;;;14.00;7.50;;;;;;;13.50;93.99;98419.02;682081;1264;139717;-82
2023/03/13 22:55:44;;;;;;;12.00;7.10;;;;;;;13.76;93.26;98365.73;682102;1264;139021;-81
2023/03/13 23:10:47;;;;;;;14.40;6.60;;;;;;;13.96;92.62;98334.29;681988;1265;138624;-81
2023/03/13 23:25:50;;;;;;;12.10;6.70;;;;;;;14.02;92.02;98320.66;681958;1261;138707;-82
2023/03/13 23:40:53;;;;;;;13.50;8.10;;;;;;;13.97;91.55;98315.91;682007;1264;139434;-83
2023/03/13 23:55:57;;;;;;;13.40;6.40;;;;;;;14.01;90.39;98323.33;681983;1263;138647;-82
